Time;durP1;ratioP1;P1;durP2;ratioP2;P2;SDS_P1;SDS_P2;PMS_P1;PMS_P2;Temp;Humidity;BMP_temperature;BMP_pressure;BME280_temperature;BME280_humidity;BME280_pressure;Samples;Min_cycle;Max_cycle;Signal;HPM_P1;HPM_P2
2023/07/03 00:00:06;;;;;;;;;12.00;5.00;;;;;16.30;79.09;100934.38;5057565;28;46859;-76
2023/07/03 00:02:32;;;;;;;;;11.33;6.00;;;;;16.30;78.32;100935.25;5057709;28;45249;-76
2023/07/03 00:04:57;;;;;;;;;5.33;5.00;;;;;16.31;79.09;100941.44;5058079;28;45245;-75
2023/07/03 00:07:23;;;;;;;;;11.00;6.00;;;;;16.26;80.02;100932.78;5057404;28;45513;-75
2023/07/03 00:09:48;;;;;;;;;9.33;4.33;;;;;16.26;80.35;100920.34;5056818;28;46547;-75
2023/07/03 00:12:13;;;;;;;;;8.67;6.00;;;;;16.04;78.64;100882.41;5057592;28;45358;-75
2023/07/03 00:14:39;;;;;;;;;10.33;6.67;;;;;16.31;80.87;100933.47;5057697;28;45245;-75
2023/07/03 00:17:07;;;;;;;;;7.33;5.00;;;;;16.38;81.72;100945.53;5057912;28;45213;-75
2023/07/03 00:19:33;;;;;;;;;8.33;4.33;;;;;16.39;80.76;100933.97;5057476;28;46513;-75
2023/07/03 00:22:00;;;;;;;;;14.00;5.67;;;;;16.35;80.97;100925.28;5057504;28;45316;-74
2023/07/03 00:24:28;;;;;;;;;10.33;7.33;;;;;16.46;81.15;100937.22;5057559;28;45343;-74
2023/07/03 00:26:55;;;;;;;;;6.67;5.33;;;;;16.40;80.94;100919.75;5057521;28;45478;-76
2023/07/03 00:29:20;;;;;;;;;7.67;5.33;;;;;16.43;82.07;100924.94;5057245;28;46271;-75
2023/07/03 00:31:45;;;;;;;;;14.67;7.00;;;;;16.52;81.21;100934.28;5057440;28;45380;-75
2023/07/03 00:34:11;;;;;;;;;12.33;6.00;;;;;16.56;81.76;100943.00;5056913;28;45243;-75
2023/07/03 00:36:36;;;;;;;;;7.00;5.00;;;;;16.52;81.87;100927.16;5057639;28;45341;-75
2023/07/03 00:39:01;;;;;;;;;13.00;6.00;;;;;16.52;82.42;100921.84;5057292;28;46140;-75
2023/07/03 00:41:27;;;;;;;;;11.33;7.67;;;;;16.63;82.88;100937.34;5057289;28;45458;-74
2023/07/03 00:43:52;;;;;;;;;5.67;4.00;;;;;16.64;81.25;100927.56;5057531;28;45326;-75
2023/07/03 00:46:18;;;;;;;;;11.33;7.00;;;;;16.66;81.78;100931.88;5057416;28;45380;-76
2023/07/03 00:48:44;;;;;;;;;9.33;7.00;;;;;16.61;82.58;100909.94;5057117;28;46371;-75
2023/07/03 00:51:12;;;;;;;;;8.33;6.00;;;;;16.69;82.99;100921.09;5057058;28;45368;-74
2023/07/03 00:53:38;;;;;;;;;8.67;5.00;;;;;16.74;81.64;100920.88;5057194;28;45341;-74
2023/07/03 00:56:04;;;;;;;;;5.67;5.67;;;;;16.74;82.69;100915.56;5057547;28;45232;-75
2023/07/03 00:58:29;;;;;;;;;9.33;7.67;;;;;16.69;82.58;100907.81;5056745;28;48098;-75
2023/07/03 01:01:10;;;;;;;;;14.00;8.00;;;;;16.76;82.39;100910.19;5057856;28;45609;-75
2023/07/03 01:03:41;;;;;;;;;9.00;7.00;;;;;16.83;83.16;100916.94;5053892;28;45460;-75
2023/07/03 01:06:16;;;;;;;;;7.33;5.67;;;;;16.83;83.31;100911.63;5057035;28;45591;-74
2023/07/03 01:08:42;;;;;;;;;9.33;6.67;;;;;16.75;83.14;100889.88;5056413;28;47002;-75
2023/07/03 01:11:08;;;;;;;;;10.00;6.00;;;;;16.83;83.19;100909.84;5056711;28;45399;-75
2023/07/03 01:13:36;;;;;;;;;13.00;8.00;;;;;16.85;82.78;100909.78;5056739;28;45344;-75
2023/07/03 01:16:05;;;;;;;;;16.33;10.00;;;;;16.84;83.79;100903.56;5056874;28;45284;-75
2023/07/03 01:18:32;;;;;;;;;14.33;7.33;;;;;16.92;83.46;100908.59;5056733;28;46681;-75
2023/07/03 01:21:03;;;;;;;;;17.33;8.67;;;;;16.89;83.77;100906.06;5056585;28;45309;-74
2023/07/03 01:23:40;;;;;;;;;15.33;7.33;;;;;16.83;83.25;100891.22;5056739;28;45363;-75
2023/07/03 01:26:07;;;;;;;;;10.67;7.67;;;;;16.93;84.49;100897.00;5056896;28;45416;-76
2023/07/03 01:28:35;;;;;;;;;14.00;7.33;;;;;16.92;84.10;100894.41;5056417;28;46212;-76
2023/07/03 01:31:07;;;;;;;;;10.67;5.33;;;;;16.95;84.70;100899.56;5056569;28;45267;-77
2023/07/03 01:33:35;;;;;;;;;12.00;6.67;;;;;16.95;83.73;100894.25;5056821;28;45436;-76
2023/07/03 01:36:02;;;;;;;;;6.00;5.33;;;;;16.99;84.98;100906.47;5056741;28;45423;-75
2023/07/03 01:38:29;;;;;;;;;13.00;7.00;;;;;16.97;83.68;100897.72;5056273;28;46242;-76
2023/07/03 01:40:56;;;;;;;;;11.33;5.00;;;;;16.98;85.05;100895.00;5056526;28;45431;-76
2023/07/03 01:43:22;;;;;;;;;11.33;10.00;;;;;16.97;85.06;100895.91;5056531;28;45346;-76
2023/07/03 01:45:48;;;;;;;;;6.67;6.67;;;;;16.93;84.10;100897.00;5056790;28;45373;-75
2023/07/03 01:48:17;;;;;;;;;9.67;7.00;;;;;17.00;84.58;100898.44;5059737;28;47070;-75
2023/07/03 01:50:45;;;;;;;;;8.00;7.00;;;;;16.96;84.66;100890.66;5059771;28;45288;-76
2023/07/03 01:53:23;;;;;;;;;10.00;9.33;;;;;16.98;83.60;100900.31;5060006;28;45317;-77
2023/07/03 01:55:57;;;;;;;;;10.67;7.67;;;;;16.96;83.75;100896.00;5060004;28;45302;-77
2023/07/03 01:58:35;;;;;;;;;11.33;5.00;;;;;16.95;83.01;100896.91;5059472;28;46315;-76
2023/07/03 02:01:04;;;;;;;;;14.00;6.00;;;;;16.95;83.50;100900.47;5059499;28;45431;-74
2023/07/03 02:03:32;;;;;;;;;6.67;6.33;;;;;16.87;82.97;100889.28;5059952;28;45348;-75
2023/07/03 02:06:02;;;;;;;;;7.33;4.67;;;;;16.88;83.22;100896.38;5059859;28;45376;-75
2023/07/03 02:08:30;;;;;;;;;12.00;6.67;;;;;16.78;83.07;100874.63;5058093;28;46206;-76
2023/07/03 02:10:56;;;;;;;;;11.33;6.33;;;;;16.84;83.89;100895.59;5059773;28;45443;-75
2023/07/03 02:13:21;;;;;;;;;8.67;7.33;;;;;16.69;83.58;100872.41;5059622;28;45545;-75
2023/07/03 02:15:47;;;;;;;;;9.00;6.33;;;;;16.73;83.76;100873.97;5059641;28;45261;-76
2023/07/03 02:18:17;;;;;;;;;10.67;6.67;;;;;16.82;83.77;100894.81;5059528;28;45510;-77
2023/07/03 02:20:44;;;;;;;;;9.33;6.67;;;;;16.80;83.96;100879.84;5059382;28;45364;-76
2023/07/03 02:23:09;;;;;;;;;12.67;7.33;;;;;16.61;83.74;100848.81;5059488;28;45285;-75
2023/07/03 02:25:35;;;;;;;;;9.33;8.67;;;;;16.79;83.76;100880.78;5059470;28;45423;-74
2023/07/03 02:28:01;;;;;;;;;10.00;7.00;;;;;16.76;83.93;100878.28;5058904;28;46172;-74
2023/07/03 02:30:26;;;;;;;;;6.00;5.33;;;;;16.73;85.24;100884.63;5059263;28;45469;-74
2023/07/03 02:32:51;;;;;;;;;9.33;5.00;;;;;16.76;84.23;100883.59;5059339;28;45383;-74
2023/07/03 02:35:17;;;;;;;;;11.33;7.00;;;;;16.75;84.08;100880.06;5059427;28;45526;-73
2023/07/03 02:37:42;;;;;;;;;11.00;8.00;;;;;16.74;83.78;100878.34;5058859;28;45561;-74
2023/07/03 02:40:13;;;;;;;;;9.67;8.67;;;;;16.77;85.37;100877.34;5059114;28;45213;-74
2023/07/03 02:42:39;;;;;;;;;11.00;7.33;;;;;16.77;85.06;100886.16;5059343;28;45396;-74
2023/07/03 02:45:06;;;;;;;;;10.33;8.33;;;;;16.71;84.41;100879.38;5059240;28;45300;-76
2023/07/03 02:47:35;;;;;;;;;10.33;7.00;;;;;16.57;84.73;100852.56;5058904;28;46613;-76
2023/07/03 02:50:00;;;;;;;;;10.00;7.33;;;;;16.77;85.49;100883.50;5058963;28;45354;-76
2023/07/03 02:52:25;;;;;;;;;7.33;5.67;;;;;16.71;85.34;100879.38;5058998;28;45509;-76
2023/07/03 02:54:51;;;;;;;;;12.00;7.67;;;;;16.71;85.76;100876.72;5059187;28;45217;-75
2023/07/03 02:57:16;;;;;;;;;14.00;7.00;;;;;16.76;85.52;100891.56;5058285;28;46693;-75
2023/07/03 02:59:41;;;;;;;;;9.67;7.67;;;;;16.76;86.27;100883.59;5058698;28;45490;-75
2023/07/03 03:02:07;;;;;;;;;7.00;7.00;;;;;16.77;86.16;100885.31;5058765;28;45242;-75
2023/07/03 03:04:32;;;;;;;;;10.67;7.00;;;;;16.57;85.33;100852.56;5058950;28;45149;-76
2023/07/03 03:06:57;;;;;;;;;10.00;6.33;;;;;16.79;85.70;100888.75;5058784;28;45361;-76
2023/07/03 03:09:23;;;;;;;;;10.67;7.00;;;;;16.67;86.21;100863.59;5058612;28;45257;-76
2023/07/03 03:11:48;;;;;;;;;8.67;5.33;;;;;16.73;86.25;100873.97;5058811;28;45443;-76
2023/07/03 03:14:14;;;;;;;;;7.67;6.33;;;;;16.76;86.47;100879.16;5058779;28;45300;-76
2023/07/03 03:16:39;;;;;;;;;8.00;6.33;;;;;16.74;85.91;100873.03;5058217;28;46359;-75
2023/07/03 03:19:05;;;;;;;;;8.00;6.00;;;;;16.77;86.81;100874.69;5058607;28;45349;-74
2023/07/03 03:21:30;;;;;;;;;7.00;5.67;;;;;16.77;86.75;100877.34;5058537;28;45420;-73
2023/07/03 03:23:55;;;;;;;;;9.33;8.33;;;;;16.77;87.29;100883.50;5058737;28;45377;-73
2023/07/03 03:26:21;;;;;;;;;13.67;7.00;;;;;16.77;87.21;100885.31;5058189;28;46276;-73
2023/07/03 03:28:46;;;;;;;;;16.33;8.33;;;;;16.77;87.21;100880.00;5058077;28;45294;-74
2023/07/03 03:31:11;;;;;;;;;9.33;7.00;;;;;16.73;87.83;100879.31;5058598;28;45399;-75
2023/07/03 03:33:37;;;;;;;;;11.33;7.00;;;;;16.70;88.26;100872.31;5058559;28;45420;-75
2023/07/03 03:36:02;;;;;;;;;9.67;7.00;;;;;16.70;87.10;100867.00;5058236;28;46361;-74
2023/07/03 03:38:27;;;;;;;;;12.67;8.33;;;;;16.73;86.92;100873.09;5058124;28;45452;-75
2023/07/03 03:40:54;;;;;;;;;10.67;7.00;;;;;16.75;87.79;100876.56;5058289;28;45425;-75
2023/07/03 03:43:20;;;;;;;;;18.00;12.00;;;;;16.68;88.01;100870.66;5058301;28;45425;-75
2023/07/03 03:45:55;;;;;;;;;13.33;9.33;;;;;16.73;87.58;100878.41;5058013;28;45353;-74
2023/07/03 03:48:20;;;;;;;;;15.00;11.33;;;;;16.68;88.10;100870.66;5058096;28;45411;-75
2023/07/03 03:50:46;;;;;;;;;15.00;12.33;;;;;16.59;88.83;100853.34;5058109;28;45427;-75
2023/07/03 03:53:11;;;;;;;;;23.67;12.33;;;;;16.65;88.17;100866.34;5058249;28;45314;-76
2023/07/03 03:55:37;;;;;;;;;14.67;14.00;;;;;16.62;89.35;100847.88;5057856;28;46645;-76
2023/07/03 03:58:02;;;;;;;;;22.33;13.00;;;;;16.61;89.98;100846.13;5057809;28;45330;-75
2023/07/03 04:00:27;;;;;;;;;15.67;14.00;;;;;16.70;88.75;100867.00;5057612;28;45298;-76
2023/07/03 04:02:52;;;;;;;;;18.33;11.67;;;;;16.68;89.27;100868.84;5058136;28;45204;-75
2023/07/03 04:05:18;;;;;;;;;12.67;10.33;;;;;16.70;89.28;100864.34;5057737;28;45466;-76
2023/07/03 04:07:43;;;;;;;;;21.33;14.33;;;;;16.72;88.85;100866.94;5057889;28;45725;-76
2023/07/03 04:10:09;;;;;;;;;18.00;13.00;;;;;16.77;88.64;100867.56;5056983;28;45458;-76
2023/07/03 04:12:34;;;;;;;;;16.67;12.33;;;;;16.76;88.58;100864.97;5057954;28;45375;-75
2023/07/03 04:15:00;;;;;;;;;11.33;9.67;;;;;16.74;88.52;100872.19;5057399;28;46540;-75
2023/07/03 04:17:25;;;;;;;;;12.67;11.00;;;;;16.74;88.42;100869.50;5057656;28;45336;-74
2023/07/03 04:19:50;;;;;;;;;11.00;8.67;;;;;16.80;89.08;100880.75;5057936;28;45366;-76
2023/07/03 04:22:16;;;;;;;;;17.67;11.00;;;;;16.81;88.80;100870.94;5057783;28;45308;-74
2023/07/03 04:24:41;;;;;;;;;10.00;7.67;;;;;16.77;90.16;100872.88;5057421;28;45345;-76
2023/07/03 04:27:08;;;;;;;;;16.33;13.00;;;;;16.80;89.46;100875.44;5057525;28;45405;-76
2023/07/03 04:29:33;;;;;;;;;9.67;9.67;;;;;16.74;89.80;100853.56;5057536;28;45797;-76
2023/07/03 04:31:59;;;;;;;;;15.33;11.00;;;;;16.78;89.23;100863.97;5057934;28;45294;-76
2023/07/03 04:34:24;;;;;;;;;11.00;9.67;;;;;16.79;89.47;100871.03;5057220;28;45630;-76
2023/07/03 04:36:49;;;;;;;;;14.00;10.00;;;;;16.81;88.46;100866.47;5057250;28;45417;-76
2023/07/03 04:39:15;;;;;;;;;27.00;19.00;;;;;16.79;90.46;100855.06;5057440;28;45779;-75
2023/07/03 04:41:41;;;;;;;;;13.33;9.33;;;;;16.77;90.74;100859.59;5057599;28;45419;-74
2023/07/03 04:44:12;;;;;;;;;14.67;11.33;;;;;16.66;90.60;100833.50;5057057;28;46998;-75
2023/07/03 04:46:38;;;;;;;;;11.67;9.67;;;;;16.75;90.29;100850.81;5057202;28;45341;-75
2023/07/03 04:49:04;;;;;;;;;14.00;9.33;;;;;16.82;90.64;100859.38;5057423;28;45324;-76
2023/07/03 04:51:30;;;;;;;;;20.33;13.00;;;;;16.90;91.34;100869.69;5057562;28;45435;-76
2023/07/03 04:54:00;;;;;;;;;12.00;11.00;;;;;16.88;90.76;100861.78;5057036;28;47414;-75
2023/07/03 04:56:27;;;;;;;;;11.67;8.00;;;;;16.91;91.18;100874.09;5056950;28;45411;-76
2023/07/03 04:58:52;;;;;;;;;18.33;11.00;;;;;16.91;91.38;100872.28;5057274;28;45324;-75
2023/07/03 05:01:18;;;;;;;;;13.33;9.67;;;;;16.94;90.61;100877.44;5057064;28;45443;-76
2023/07/03 05:03:43;;;;;;;;;11.33;9.33;;;;;16.96;90.98;100866.72;5056903;28;46579;-76
2023/07/03 05:06:10;;;;;;;;;13.33;7.00;;;;;16.85;89.39;100843.28;5057021;28;45339;-76
2023/07/03 05:08:35;;;;;;;;;15.67;9.33;;;;;17.05;89.64;100874.28;5057075;28;45305;-76
2023/07/03 05:11:01;;;;;;;;;12.67;7.67;;;;;17.04;89.25;100875.22;5057250;28;45230;-75
2023/07/03 05:13:27;;;;;;;;;11.33;8.33;;;;;17.14;88.70;100886.28;5056745;28;47297;-75
2023/07/03 05:15:54;;;;;;;;;16.33;10.33;;;;;17.17;88.96;100889.66;5056782;28;45297;-75
2023/07/03 05:18:20;;;;;;;;;12.00;9.33;;;;;17.22;89.51;100897.41;5056886;28;45416;-76
2023/07/03 05:20:47;;;;;;;;;8.67;8.67;;;;;17.25;88.38;100889.28;5058309;28;45405;-75
2023/07/03 05:23:15;;;;;;;;;9.67;6.33;;;;;17.23;88.40;100892.00;5048380;28;45445;-76
2023/07/03 05:25:42;;;;;;;;;9.67;9.67;;;;;17.24;88.98;100879.59;5060103;28;45336;-76
2023/07/03 05:28:07;;;;;;;;;12.67;10.33;;;;;17.25;88.02;100875.97;5060209;28;45312;-75
2023/07/03 05:30:33;;;;;;;;;12.67;8.00;;;;;17.26;88.80;100884.84;5059997;28;45544;-74
2023/07/03 05:32:58;;;;;;;;;9.67;9.33;;;;;17.18;89.36;100885.19;5059875;28;45455;-73
2023/07/03 05:35:24;;;;;;;;;17.67;13.00;;;;;17.23;89.20;100888.50;5059953;28;45354;-74
2023/07/03 05:37:49;;;;;;;;;7.00;6.00;;;;;17.24;88.60;100884.91;5060205;28;45498;-74
2023/07/03 05:40:14;;;;;;;;;9.00;7.00;;;;;17.27;88.32;100879.44;5060263;28;45306;-76
2023/07/03 05:42:40;;;;;;;;;12.33;9.00;;;;;17.31;89.10;100894.31;5059783;28;46089;-76
2023/07/03 05:45:07;;;;;;;;;12.00;7.00;;;;;17.35;87.83;100887.88;5059674;28;45443;-75
2023/07/03 05:47:35;;;;;;;;;12.67;8.67;;;;;17.37;87.90;100899.34;5058587;28;45445;-76
2023/07/03 05:50:00;;;;;;;;;14.00;10.00;;;;;17.35;87.57;100882.56;5059987;28;45451;-71
2023/07/03 05:52:25;;;;;;;;;19.00;11.33;;;;;17.31;88.16;100875.69;5059652;28;45721;-75
2023/07/03 05:54:51;;;;;;;;;12.33;7.67;;;;;17.44;87.43;100891.94;5058607;28;45793;-75
2023/07/03 05:57:16;;;;;;;;;13.33;9.67;;;;;17.50;86.26;100888.06;5059709;28;45215;-76
2023/07/03 05:59:41;;;;;;;;;16.33;11.67;;;;;17.56;87.22;100901.94;5060006;28;45431;-77
2023/07/03 06:02:13;;;;;;;;;10.67;7.33;;;;;17.64;86.40;100898.03;5057943;28;46619;-75
2023/07/03 06:04:38;;;;;;;;;12.33;7.33;;;;;17.71;86.45;100894.13;5059590;28;45373;-76
2023/07/03 06:07:04;;;;;;;;;11.67;7.67;;;;;17.83;86.68;100895.31;5059484;28;45475;-75
2023/07/03 06:09:30;;;;;;;;;12.67;7.00;;;;;17.91;86.63;100903.81;5059823;28;45326;-76
2023/07/03 06:11:56;;;;;;;;;6.33;4.67;;;;;17.98;85.03;100907.91;5058574;28;46131;-75
2023/07/03 06:14:22;;;;;;;;;12.33;8.00;;;;;18.00;84.10;100889.16;5059360;28;45288;-74
2023/07/03 06:16:50;;;;;;;;;13.00;8.33;;;;;18.09;83.19;100897.56;5059257;28;45353;-74
2023/07/03 06:19:17;;;;;;;;;7.00;7.00;;;;;18.23;83.19;100901.28;5059657;28;45414;-74
2023/07/03 06:21:42;;;;;;;;;9.67;7.67;;;;;18.30;82.34;100896.47;5059002;28;45548;-73
2023/07/03 06:24:09;;;;;;;;;11.33;10.33;;;;;18.40;82.08;100898.59;5059148;28;45282;-73
2023/07/03 06:26:35;;;;;;;;;10.33;8.33;;;;;18.48;80.59;100894.66;5059161;28;45591;-73
2023/07/03 06:29:03;;;;;;;;;17.67;10.33;;;;;18.59;80.35;100898.47;5059291;28;45408;-72
2023/07/03 06:31:29;;;;;;;;;6.67;5.33;;;;;18.74;79.63;100896.75;5057635;28;45605;-73
2023/07/03 06:33:54;;;;;;;;;18.67;16.33;;;;;18.86;78.39;100892.59;5058733;28;45223;-73
2023/07/03 06:36:21;;;;;;;;;7.33;5.00;;;;;18.85;76.65;100881.97;5057788;28;45368;-74
2023/07/03 06:38:57;;;;;;;;;6.00;6.00;;;;;18.94;74.40;100910.88;5059449;28;45320;-74
2023/07/03 06:41:25;;;;;;;;;7.67;6.00;;;;;18.91;73.46;100905.69;5058760;28;46296;-76
2023/07/03 06:43:52;;;;;;;;;6.33;6.00;;;;;18.89;73.74;100905.75;5058839;28;45322;-75
2023/07/03 06:46:17;;;;;;;;;8.67;7.00;;;;;18.83;72.29;100915.88;5059119;28;45431;-76
2023/07/03 06:48:43;;;;;;;;;8.33;5.00;;;;;18.79;73.67;100904.50;5059183;28;45246;-75
2023/07/03 06:51:11;;;;;;;;;8.33;6.67;;;;;18.82;73.79;100903.50;5059221;27;45588;-76
2023/07/03 06:53:36;;;;;;;;;8.33;5.00;;;;;18.82;73.40;100909.72;5058721;28;45372;-74
2023/07/03 06:56:03;;;;;;;;;9.33;5.67;;;;;18.84;73.25;100904.28;5057519;28;45600;-75
2023/07/03 06:58:30;;;;;;;;;4.00;4.00;;;;;18.92;72.43;100915.41;5059095;28;45438;-74
2023/07/03 07:00:56;;;;;;;;;6.00;5.67;;;;;18.90;72.08;100902.16;5056877;28;45562;-75
2023/07/03 07:03:22;;;;;;;;;6.00;4.33;;;;;18.95;71.51;100921.44;5058634;28;45321;-76
2023/07/03 07:05:47;;;;;;;;;7.00;5.00;;;;;18.99;71.12;100911.44;5058464;28;45229;-75
2023/07/03 07:08:16;;;;;;;;;7.00;4.00;;;;;19.07;71.29;100921.72;5057238;28;45498;-75
2023/07/03 07:10:43;;;;;;;;;6.33;5.33;;;;;19.10;70.75;100919.72;5056827;28;45632;-74
2023/07/03 07:13:08;;;;;;;;;7.00;5.00;;;;;19.14;70.15;100918.63;5056700;28;45321;-75
2023/07/03 07:15:39;;;;;;;;;9.33;5.67;;;;;19.28;70.30;100933.00;5058386;28;45594;-76
2023/07/03 07:18:06;;;;;;;;;4.33;4.33;;;;;19.55;66.79;100898.50;5058757;28;45371;-74
2023/07/03 07:20:40;;;;;;;;;4.67;4.33;;;;;19.76;66.41;100898.19;5055139;28;46605;-75
2023/07/03 07:23:07;;;;;;;;;6.33;4.67;;;;;20.09;65.85;100927.44;5058309;28;45481;-76
2023/07/03 07:25:33;;;;;;;;;5.00;4.33;;;;;20.23;64.49;100939.09;5058617;28;45419;-74
2023/07/03 07:27:59;;;;;;;;;3.00;3.00;;;;;20.34;63.59;100939.31;5044320;28;45578;-76
2023/07/03 07:30:24;;;;;;;;;4.00;4.00;;;;;20.38;63.63;100938.19;5043313;28;45556;-76
2023/07/03 07:32:50;;;;;;;;;6.67;5.00;;;;;20.58;62.27;100934.28;5057824;28;45801;-75
2023/07/03 07:35:15;;;;;;;;;5.33;4.67;;;;;20.78;60.20;100935.75;5056631;28;45380;-75
2023/07/03 07:37:41;;;;;;;;;4.67;4.00;;;;;20.99;59.32;100932.69;5058618;28;45212;-76
2023/07/03 07:40:07;;;;;;;;;5.33;3.67;;;;;20.91;58.18;100924.28;5057863;28;46563;-77
2023/07/03 07:42:33;;;;;;;;;9.33;6.33;;;;;20.81;59.58;100932.91;5058017;28;45431;-76
2023/07/03 07:44:58;;;;;;;;;7.00;4.00;;;;;20.77;59.41;100942.06;5056935;28;45157;-76
2023/07/03 07:47:24;;;;;;;;;3.00;3.00;;;;;20.77;59.21;100936.72;5057956;28;45350;-76
2023/07/03 07:49:49;;;;;;;;;4.33;3.00;;;;;20.78;59.51;100932.22;5058049;28;46468;-76
2023/07/03 07:52:15;;;;;;;;;4.33;4.00;;;;;20.79;60.04;100942.81;5057913;28;45221;-75
2023/07/03 07:54:41;;;;;;;;;8.33;4.67;;;;;20.75;58.77;100933.25;5057537;28;45400;-76
2023/07/03 07:57:07;;;;;;;;;5.00;3.33;;;;;20.93;59.29;100949.13;5058139;28;45504;-76
2023/07/03 07:59:36;;;;;;;;;6.33;4.00;;;;;21.07;56.45;100938.38;5057702;28;46243;-77
2023/07/03 08:02:01;;;;;;;;;7.67;4.00;;;;;21.22;57.11;100942.75;5057548;28;45331;-76
2023/07/03 08:04:27;;;;;;;;;8.67;4.00;;;;;21.32;56.63;100940.34;5057766;28;45245;-76
2023/07/03 08:06:53;;;;;;;;;9.33;3.67;;;;;21.35;56.23;100944.66;5057867;28;45217;-76
2023/07/03 08:09:19;;;;;;;;;9.33;4.33;;;;;21.33;55.20;100941.22;5057485;28;46578;-76
2023/07/03 08:11:45;;;;;;;;;5.00;2.67;;;;;21.33;55.30;100933.19;5057505;28;45286;-75
2023/07/03 08:14:10;;;;;;;;;8.67;3.00;;;;;21.31;53.11;100938.63;5057741;28;45359;-75
2023/07/03 08:16:36;;;;;;;;;3.00;2.00;;;;;21.26;53.57;100943.44;5057548;28;45159;-76
2023/07/03 08:19:02;;;;;;;;;6.67;3.00;;;;;21.24;52.73;100939.13;5057469;28;45434;-76
2023/07/03 08:21:27;;;;;;;;;5.67;2.00;;;;;21.19;53.43;100947.47;5057651;28;45409;-76
2023/07/03 08:23:53;;;;;;;;;6.67;3.00;;;;;21.09;53.51;100941.84;5057507;28;45278;-76
2023/07/03 08:26:20;;;;;;;;;5.00;3.33;;;;;21.16;53.49;100948.53;5057980;28;45542;-75
2023/07/03 08:28:46;;;;;;;;;5.00;3.33;;;;;21.14;52.67;100938.88;5057223;28;45411;-74
2023/07/03 08:31:11;;;;;;;;;6.33;3.33;;;;;21.12;52.90;100947.00;5056856;28;45392;-76
2023/07/03 08:33:37;;;;;;;;;2.33;2.33;;;;;21.07;53.36;100951.78;5057533;28;45719;-75
2023/07/03 08:36:02;;;;;;;;;10.00;4.33;;;;;20.97;53.21;100946.16;5057487;28;45445;-76
2023/07/03 08:38:27;;;;;;;;;4.33;2.00;;;;;20.98;53.63;100955.91;5056993;28;45434;-77
2023/07/03 08:40:58;;;;;;;;;1.67;1.00;;;;;20.96;53.21;100955.16;5056938;28;45373;-76
2023/07/03 08:43:30;;;;;;;;;4.67;3.67;;;;;20.95;53.30;100955.25;5056751;28;45499;-77
2023/07/03 08:45:56;;;;;;;;;3.67;2.00;;;;;21.30;52.53;100961.00;5057205;28;45483;-76
2023/07/03 08:48:28;;;;;;;;;3.00;2.67;;;;;21.43;50.17;100961.06;5049122;28;46684;-76
2023/07/03 08:50:59;;;;;;;;;3.00;1.67;;;;;21.49;48.65;100965.19;5036691;28;45337;-72
2023/07/03 08:53:37;;;;;;;;;5.00;2.00;;;;;21.60;49.25;100964.53;5044018;28;45265;-79
2023/07/03 08:56:16;;;;;;;;;3.00;2.00;;;;;21.75;49.17;100955.44;5050603;28;45456;-73
2023/07/03 08:58:43;;;;;;;;;7.00;4.00;;;;;22.03;47.51;100964.31;5046556;28;47496;-73
2023/07/03 09:01:29;;;;;;;;;4.33;4.00;;;;;22.22;46.96;100966.59;5051007;28;45396;-78
2023/07/03 09:04:09;;;;;;;;;2.00;2.00;;;;;22.47;46.96;100968.50;5040645;28;45733;-73
2023/07/03 09:07:02;;;;;;;;;2.33;1.33;;;;;22.74;46.12;100976.47;5040602;28;45385;-79
2023/07/03 09:09:53;;;;;;;;;4.00;1.00;;;;;22.64;45.39;100950.34;5040210;28;46545;-75
2023/07/03 09:12:37;;;;;;;;;2.67;2.67;;;;;22.85;44.43;100969.47;5056839;28;45427;-78
2023/07/03 09:15:17;;;;;;;;;2.00;2.00;;;;;23.01;44.02;100977.28;5046874;28;45379;-77
2023/07/03 09:17:45;;;;;;;;;3.67;3.00;;;;;23.03;43.33;100959.22;5059156;28;45447;-74
2023/07/03 09:20:12;;;;;;;;;3.00;2.00;;;;;23.55;43.24;100979.63;5047032;28;45429;-73
2023/07/03 09:22:51;;;;;;;;;5.33;2.00;;;;;23.98;43.53;100968.38;5053806;28;45398;-74
2023/07/03 09:25:26;;;;;;;;;3.67;1.00;;;;;24.42;41.85;100971.31;5045003;28;45486;-74
2023/07/03 09:27:56;;;;;;;;;3.00;2.00;;;;;24.48;42.15;100962.75;5050845;28;45550;-74
2023/07/03 09:30:21;;;;;;;;;3.33;1.67;;;;;24.45;40.98;100967.53;5054521;28;47386;-74
2023/07/03 09:32:47;;;;;;;;;1.33;1.33;;;;;24.89;40.11;100930.84;5050840;28;45485;-74
2023/07/03 09:35:15;;;;;;;;;6.33;2.67;;;;;25.46;39.35;100966.69;5043934;28;45455;-74
2023/07/03 09:37:45;;;;;;;;;4.67;1.67;;;;;26.83;39.20;100975.84;5052674;28;45480;-73
2023/07/03 09:40:37;;;;;;;;;3.67;2.33;;;;;27.30;39.23;100967.16;5047099;28;46565;-73
2023/07/03 09:43:03;;;;;;;;;3.00;1.00;;;;;28.23;35.68;100972.25;5055506;28;45503;-73
2023/07/03 09:45:33;;;;;;;;;6.00;2.00;;;;;29.64;36.11;100974.00;5056592;28;45502;-75
2023/07/03 09:48:02;;;;;;;;;2.00;2.00;;;;;30.32;34.60;100971.69;5056331;28;45404;-74
2023/07/03 09:50:33;;;;;;;;;3.00;2.33;;;;;29.79;33.66;100963.44;5048146;28;46009;-74
2023/07/03 09:53:00;;;;;;;;;2.67;2.00;;;;;28.99;33.99;100963.22;5054878;28;45520;-72
2023/07/03 09:55:26;;;;;;;;;1.67;1.67;;;;;28.15;34.67;100975.69;5049863;28;45473;-70
2023/07/03 09:57:52;;;;;;;;;1.67;1.67;;;;;27.50;35.49;100981.63;5037715;28;45456;-71
2023/07/03 10:00:21;;;;;;;;;2.67;2.00;;;;;26.98;35.98;100970.06;5036621;28;46301;-69
2023/07/03 10:02:51;;;;;;;;;3.00;2.00;;;;;26.66;36.54;100979.97;5036475;28;45454;-70
2023/07/03 10:05:21;;;;;;;;;2.67;2.33;;;;;26.38;36.92;100979.69;5052301;28;45942;-70
2023/07/03 10:07:48;;;;;;;;;7.00;3.00;;;;;26.25;37.41;100981.72;5054062;28;45428;-73
2023/07/03 10:10:19;;;;;;;;;2.33;1.67;;;;;26.52;37.21;100981.19;5055404;28;46483;-71
2023/07/03 10:12:55;;;;;;;;;1.00;1.00;;;;;26.72;37.59;100967.81;5055470;28;45236;-72
2023/07/03 10:15:26;;;;;;;;;3.33;2.00;;;;;27.75;36.48;100984.78;5055645;28;45495;-70
2023/07/03 10:18:10;;;;;;;;;0.67;0.67;;;;;28.66;36.15;100989.88;5056884;28;45487;-70
2023/07/03 10:20:39;;;;;;;;;3.33;2.00;;;;;29.46;34.76;100987.53;5043349;28;45482;-67
2023/07/03 10:23:09;;;;;;;;;3.00;2.00;;;;;30.11;33.28;100983.78;5039051;28;45297;-70
2023/07/03 10:25:40;;;;;;;;;2.00;2.00;;;;;31.21;32.21;100984.13;5038982;28;45419;-67
2023/07/03 10:28:14;;;;;;;;;5.00;2.00;;;;;32.46;32.64;100999.66;5050226;28;45382;-68
2023/07/03 10:30:39;;;;;;;;;3.67;2.00;;;;;33.59;30.20;100984.94;5058441;28;48505;-68
2023/07/03 10:33:12;;;;;;;;;3.00;1.33;;;;;34.21;31.26;100985.81;5057955;28;45391;-68
2023/07/03 10:35:41;;;;;;;;;6.33;2.00;;;;;33.58;29.00;100977.75;5047598;28;45730;-69
2023/07/03 10:38:10;;;;;;;;;4.00;1.00;;;;;32.57;28.37;100998.41;5047047;28;45592;-79
2023/07/03 10:40:53;;;;;;;;;3.00;2.33;;;;;31.36;29.69;100999.84;5043877;28;45440;-71
2023/07/03 10:43:21;;;;;;;;;3.00;3.00;;;;;30.27;31.45;100991.19;5046694;28;45506;-72
2023/07/03 10:45:47;;;;;;;;;2.33;2.00;;;;;29.47;32.06;100991.13;5052013;28;45424;-70
2023/07/03 10:48:16;;;;;;;;;2.00;2.00;;;;;29.22;33.34;100989.94;5038871;28;45439;-69
2023/07/03 10:51:17;;;;;;;;;3.33;1.67;;;;;29.97;32.84;100982.47;5056048;28;45371;-69
2023/07/03 10:53:56;;;;;;;;;2.00;1.67;;;;;30.94;30.41;100982.47;5058027;28;45237;-69
2023/07/03 10:56:24;;;;;;;;;3.00;2.00;;;;;31.30;29.69;100982.31;5047394;28;45357;-69
2023/07/03 10:59:20;;;;;;;;;3.33;2.00;;;;;31.07;30.25;100979.31;5057932;28;45269;-68
2023/07/03 11:02:02;;;;;;;;;2.00;1.00;;;;;30.38;30.55;100985.50;5057087;28;47073;-69
2023/07/03 11:04:40;;;;;;;;;4.33;1.33;;;;;29.59;31.00;100992.59;5037846;28;45374;-69
2023/07/03 11:07:18;;;;;;;;;2.33;2.33;;;;;28.74;31.17;100991.84;5038346;28;45417;-68
2023/07/03 11:10:13;;;;;;;;;2.33;2.33;;;;;27.86;32.59;100995.47;5038772;28;45432;-71
2023/07/03 11:13:21;;;;;;;;;4.00;3.00;;;;;27.16;33.29;100994.59;5038426;28;45348;-70
2023/07/03 11:16:07;;;;;;;;;5.00;5.00;;;;;26.55;34.79;101009.78;5015802;28;45453;-69
2023/07/03 11:18:59;;;;;;;;;3.00;3.00;;;;;26.12;35.85;101006.22;5015758;28;45402;-70
2023/07/03 11:21:40;;;;;;;;;3.67;2.33;;;;;25.83;35.77;101008.63;5016161;28;45422;-69
2023/07/03 11:24:24;;;;;;;;;2.00;2.00;;;;;25.41;36.46;100979.69;5015709;28;47454;-69
2023/07/03 11:27:11;;;;;;;;;2.00;2.00;;;;;25.54;36.25;101017.28;5015515;28;45521;-69